Time,TemperatureF,DewpointF,PressureIn,WindDirection,WindDirectionDegrees,WindSpeedMPH,WindSpeedGustMPH,Humidity,HourlyPrecipIn,Conditions,Clouds,dailyrainin,SolarRadiationWatts/m^2,SoftwareType,DateUTC
2013-05-29 00:00:00,70.0,66.0,-100.00,NW,315,12.0,-999.0,85,0.03,,,-99.99,0.000000,,2013-05-29 04:00:00,
2013-05-29 00:33:00,70.0,66.0,-100.00,NW,315,12.0,-999.0,85,0.03,,,-99.99,0.000000,,2013-05-29 04:33:00,
2013-05-29 00:42:00,70.0,66.0,-100.00,NW,315,12.0,-999.0,85,0.03,,,-99.99,0.000000,,2013-05-29 04:42:00,
2013-05-29 00:52:00,70.0,66.0,-100.00,NW,315,12.0,-999.0,85,0.03,,,-99.99,0.000000,,2013-05-29 04:52:00,
2013-05-29 01:00:00,64.0,62.0,-100.00,WSW,247,13.0,-999.0,90,0.09,,,-99.99,1.160000,,2013-05-29 05:00:00,
2013-05-29 01:33:00,64.0,62.0,-100.00,WSW,247,13.0,-999.0,90,0.09,,,-99.99,1.160000,,2013-05-29 05:33:00,
2013-05-29 01:42:00,64.0,62.0,-100.00,WSW,247,13.0,-999.0,90,0.09,,,-99.99,1.160000,,2013-05-29 05:42:00,
2013-05-29 01:52:00,64.0,62.0,-100.00,WSW,247,13.0,-999.0,90,0.09,,,-99.99,1.160000,,2013-05-29 05:52:00,
2013-05-29 03:00:00,60.0,57.0,-100.00,West,270,6.0,-999.0,89,-99.99,,,-99.99,1.160000,,2013-05-29 07:00:00,
2013-05-29 03:34:00,60.0,57.0,-100.00,West,270,6.0,-999.0,89,-99.99,,,-99.99,1.160000,,2013-05-29 07:34:00,
2013-05-29 03:42:00,60.0,57.0,-100.00,West,270,6.0,-999.0,89,-99.99,,,-99.99,1.160000,,2013-05-29 07:42:00,
2013-05-29 03:52:00,60.0,57.0,-100.00,West,270,6.0,-999.0,89,-99.99,,,-99.99,1.160000,,2013-05-29 07:52:00,
2013-05-29 04:00:00,62.0,59.0,-100.00,West,270,5.0,-999.0,89,-99.99,,,-99.99,1.160000,,2013-05-29 08:00:00,
2013-05-29 04:32:00,62.0,59.0,-100.00,West,270,5.0,-999.0,89,-99.99,,,-99.99,1.160000,,2013-05-29 08:32:00,
2013-05-29 04:42:00,62.0,59.0,-100.00,West,270,5.0,-999.0,89,-99.99,,,-99.99,1.160000,,2013-05-29 08:42:00,
2013-05-29 04:52:00,62.0,59.0,-100.00,West,270,5.0,-999.0,89,-99.99,,,-99.99,1.160000,,2013-05-29 08:52:00,
2013-05-29 05:00:00,64.0,59.0,-100.00,NW,315,10.0,-999.0,83,-99.99,,,-99.99,1.160000,,2013-05-29 09:00:00,
2013-05-29 05:33:00,64.0,59.0,-100.00,NW,315,10.0,-999.0,83,-99.99,,,-99.99,1.160000,,2013-05-29 09:33:00,
2013-05-29 05:42:00,64.0,59.0,-100.00,NW,315,10.0,-999.0,83,-99.99,,,-99.99,1.160000,,2013-05-29 09:42:00,
2013-05-29 05:52:00,64.0,59.0,-100.00,NW,315,10.0,-999.0,83,-99.99,,,-99.99,1.160000,,2013-05-29 09:52:00,
2013-05-29 06:00:00,63.0,59.0,-100.00,WNW,292,5.0,-999.0,86,-99.99,,,-99.99,1.160000,,2013-05-29 10:00:00,
2013-05-29 06:33:00,63.0,59.0,-100.00,WNW,292,5.0,-999.0,86,-99.99,,,-99.99,1.160000,,2013-05-29 10:33:00,
2013-05-29 06:42:00,63.0,59.0,-100.00,WNW,292,5.0,-999.0,86,-99.99,,,-99.99,1.160000,,2013-05-29 10:42:00,
2013-05-29 06:53:00,63.0,59.0,-100.00,WNW,292,5.0,-999.0,86,-99.99,,,-99.99,1.160000,,2013-05-29 10:53:00,
2013-05-29 07:00:00,62.0,59.0,-100.00,WNW,292,2.0,-999.0,90,-99.99,,,-99.99,8.120000,,2013-05-29 11:00:00,
2013-05-29 07:32:00,62.0,59.0,-100.00,WNW,292,2.0,-999.0,90,-99.99,,,-99.99,8.120000,,2013-05-29 11:32:00,
2013-05-29 07:42:00,62.0,59.0,-100.00,WNW,292,2.0,-999.0,90,-99.99,,,-99.99,8.120000,,2013-05-29 11:42:00,
2013-05-29 07:52:00,62.0,59.0,-100.00,WNW,292,2.0,-999.0,90,-99.99,,,-99.99,8.120000,,2013-05-29 11:52:00,
2013-05-29 08:00:00,61.0,59.0,-100.00,West,270,5.0,-999.0,91,-99.99,,,-99.99,24.360001,,2013-05-29 12:00:00,
2013-05-29 08:32:00,61.0,59.0,-100.00,West,270,5.0,-999.0,91,-99.99,,,-99.99,24.360001,,2013-05-29 12:32:00,
2013-05-29 08:42:00,61.0,59.0,-100.00,West,270,5.0,-999.0,91,-99.99,,,-99.99,24.360001,,2013-05-29 12:42:00,
2013-05-29 08:52:00,61.0,59.0,-100.00,West,270,5.0,-999.0,91,-99.99,,,-99.99,24.360001,,2013-05-29 12:52:00,
2013-05-29 09:00:00,61.0,59.0,-100.00,WNW,292,5.0,-999.0,93,-99.99,,,-99.99,58.000000,,2013-05-29 13:00:00,
2013-05-29 09:32:00,61.0,59.0,-100.00,WNW,292,5.0,-999.0,93,-99.99,,,-99.99,58.000000,,2013-05-29 13:32:00,
2013-05-29 09:42:00,61.0,59.0,-100.00,WNW,292,5.0,-999.0,93,-99.99,,,-99.99,58.000000,,2013-05-29 13:42:00,
2013-05-29 09:53:00,61.0,59.0,-100.00,WNW,292,5.0,-999.0,93,-99.99,,,-99.99,58.000000,,2013-05-29 13:53:00,
2013-05-29 10:00:00,60.0,58.0,-100.00,WNW,292,4.0,-999.0,93,-99.99,,,-99.99,100.919998,,2013-05-29 14:00:00,
2013-05-29 10:32:00,60.0,58.0,-100.00,WNW,292,4.0,-999.0,93,-99.99,,,-99.99,100.919998,,2013-05-29 14:32:00,
2013-05-29 10:42:00,60.0,58.0,-100.00,WNW,292,4.0,-999.0,93,-99.99,,,-99.99,100.919998,,2013-05-29 14:42:00,
2013-05-29 10:52:00,60.0,58.0,-100.00,WNW,292,4.0,-999.0,93,-99.99,,,-99.99,100.919998,,2013-05-29 14:52:00,
2013-05-29 11:00:00,63.0,60.0,-100.00,WNW,292,3.0,-999.0,90,-99.99,,,-99.99,365.399994,,2013-05-29 15:00:00,
2013-05-29 11:33:00,63.0,60.0,-100.00,WNW,292,3.0,-999.0,90,-99.99,,,-99.99,365.399994,,2013-05-29 15:33:00,
2013-05-29 11:43:00,63.0,60.0,-100.00,WNW,292,3.0,-999.0,90,-99.99,,,-99.99,365.399994,,2013-05-29 15:43:00,
2013-05-29 11:53:00,63.0,60.0,-100.00,WNW,292,3.0,-999.0,90,-99.99,,,-99.99,365.399994,,2013-05-29 15:53:00,
2013-05-29 12:00:00,64.0,61.0,-100.00,NW,315,9.0,-999.0,89,-99.99,,,-99.99,168.199997,,2013-05-29 16:00:00,
2013-05-29 12:33:00,64.0,61.0,-100.00,NW,315,9.0,-999.0,89,-99.99,,,-99.99,168.199997,,2013-05-29 16:33:00,
2013-05-29 12:42:00,64.0,61.0,-100.00,NW,315,9.0,-999.0,89,-99.99,,,-99.99,168.199997,,2013-05-29 16:42:00,
2013-05-29 12:52:00,64.0,61.0,-100.00,NW,315,9.0,-999.0,89,-99.99,,,-99.99,168.199997,,2013-05-29 16:52:00,
2013-05-29 13:00:00,62.0,60.0,-100.00,North,0,7.0,-999.0,94,-99.99,,,-99.99,165.880005,,2013-05-29 17:00:00,
2013-05-29 13:32:00,62.0,60.0,-100.00,North,0,7.0,-999.0,94,-99.99,,,-99.99,165.880005,,2013-05-29 17:32:00,
2013-05-29 13:43:00,62.0,60.0,-100.00,North,0,7.0,-999.0,94,-99.99,,,-99.99,165.880005,,2013-05-29 17:43:00,
2013-05-29 13:52:00,62.0,60.0,-100.00,North,0,7.0,-999.0,94,-99.99,,,-99.99,165.880005,,2013-05-29 17:52:00,
2013-05-29 14:00:00,66.0,62.0,-100.00,North,0,6.0,-999.0,87,-99.99,,,-99.99,285.359985,,2013-05-29 18:00:00,
2013-05-29 14:32:00,66.0,62.0,-100.00,North,0,6.0,-999.0,87,-99.99,,,-99.99,285.359985,,2013-05-29 18:32:00,
2013-05-29 14:42:00,66.0,62.0,-100.00,North,0,6.0,-999.0,87,-99.99,,,-99.99,285.359985,,2013-05-29 18:42:00,
2013-05-29 14:52:00,66.0,62.0,-100.00,North,0,6.0,-999.0,87,-99.99,,,-99.99,285.359985,,2013-05-29 18:52:00,
2013-05-29 15:00:00,67.0,62.0,-100.00,North,0,4.0,-999.0,82,-99.99,,,-99.99,233.160004,,2013-05-29 19:00:00,
2013-05-29 15:32:00,67.0,62.0,-100.00,North,0,4.0,-999.0,82,-99.99,,,-99.99,233.160004,,2013-05-29 19:32:00,
2013-05-29 15:44:00,67.0,62.0,-100.00,North,0,4.0,-999.0,82,-99.99,,,-99.99,233.160004,,2013-05-29 19:44:00,
2013-05-29 15:53:00,67.0,62.0,-100.00,North,0,4.0,-999.0,82,-99.99,,,-99.99,233.160004,,2013-05-29 19:53:00,
2013-05-29 16:00:00,67.0,61.0,-100.00,North,0,3.0,-999.0,83,-99.99,,,-99.99,116.000000,,2013-05-29 20:00:00,
2013-05-29 16:33:00,67.0,61.0,-100.00,North,0,3.0,-999.0,83,-99.99,,,-99.99,116.000000,,2013-05-29 20:33:00,
2013-05-29 16:42:00,67.0,61.0,-100.00,North,0,3.0,-999.0,83,-99.99,,,-99.99,116.000000,,2013-05-29 20:42:00,
2013-05-29 16:53:00,67.0,61.0,-100.00,North,0,3.0,-999.0,83,-99.99,,,-99.99,116.000000,,2013-05-29 20:53:00,
2013-05-29 17:00:00,70.0,62.0,-100.00,North,0,3.0,-999.0,75,-99.99,,,-99.99,479.079987,,2013-05-29 21:00:00,
2013-05-29 17:33:00,70.0,62.0,-100.00,North,0,3.0,-999.0,75,-99.99,,,-99.99,479.079987,,2013-05-29 21:33:00,
2013-05-29 17:44:00,70.0,62.0,-100.00,North,0,3.0,-999.0,75,-99.99,,,-99.99,479.079987,,2013-05-29 21:44:00,
2013-05-29 17:53:00,70.0,62.0,-100.00,North,0,3.0,-999.0,75,-99.99,,,-99.99,479.079987,,2013-05-29 21:53:00,
2013-05-29 18:00:00,76.0,63.0,-100.00,North,0,3.0,-999.0,62,-99.99,,,-99.99,475.600006,,2013-05-29 22:00:00,
2013-05-29 18:34:00,76.0,63.0,-100.00,North,0,3.0,-999.0,62,-99.99,,,-99.99,475.600006,,2013-05-29 22:34:00,
2013-05-29 18:42:00,76.0,63.0,-100.00,North,0,3.0,-999.0,62,-99.99,,,-99.99,475.600006,,2013-05-29 22:42:00,
2013-05-29 18:53:00,76.0,63.0,-100.00,North,0,3.0,-999.0,62,-99.99,,,-99.99,475.600006,,2013-05-29 22:53:00,
2013-05-29 19:00:00,77.0,62.0,-100.00,NNW,337,5.0,-999.0,59,-99.99,,,-99.99,336.399994,,2013-05-29 23:00:00,
2013-05-29 19:33:00,77.0,62.0,-100.00,NNW,337,5.0,-999.0,59,-99.99,,,-99.99,336.399994,,2013-05-29 23:33:00,
2013-05-29 19:42:00,77.0,62.0,-100.00,NNW,337,5.0,-999.0,59,-99.99,,,-99.99,336.399994,,2013-05-29 23:42:00,
2013-05-29 19:53:00,77.0,62.0,-100.00,NNW,337,5.0,-999.0,59,-99.99,,,-99.99,336.399994,,2013-05-29 23:53:00,
2013-05-29 21:00:00,76.0,65.0,-100.00,WNW,292,1.0,-999.0,70,-99.99,,,-99.99,46.400002,,2013-05-30 01:00:00,
2013-05-29 21:32:00,76.0,65.0,-100.00,WNW,292,1.0,-999.0,70,-99.99,,,-99.99,46.400002,,2013-05-30 01:32:00,
2013-05-29 21:42:00,76.0,65.0,-100.00,WNW,292,1.0,-999.0,70,-99.99,,,-99.99,46.400002,,2013-05-30 01:42:00,
2013-05-29 21:52:00,76.0,65.0,-100.00,WNW,292,1.0,-999.0,70,-99.99,,,-99.99,46.400002,,2013-05-30 01:52:00,
2013-05-29 22:00:00,72.0,65.0,-100.00,WNW,292,1.0,-999.0,79,-99.99,,,-99.99,1.160000,,2013-05-30 02:00:00,
2013-05-29 22:32:00,72.0,65.0,-100.00,WNW,292,1.0,-999.0,79,-99.99,,,-99.99,1.160000,,2013-05-30 02:32:00,
2013-05-29 22:42:00,72.0,65.0,-100.00,WNW,292,1.0,-999.0,79,-99.99,,,-99.99,1.160000,,2013-05-30 02:42:00,
2013-05-29 22:52:00,72.0,65.0,-100.00,WNW,292,1.0,-999.0,79,-99.99,,,-99.99,1.160000,,2013-05-30 02:52:00,
2013-05-29 23:00:00,70.0,65.0,-100.00,WNW,292,1.0,-999.0,84,-99.99,,,-99.99,1.160000,,2013-05-30 03:00:00,
2013-05-29 23:33:00,70.0,65.0,-100.00,WNW,292,1.0,-999.0,84,-99.99,,,-99.99,1.160000,,2013-05-30 03:33:00,
2013-05-29 23:43:00,70.0,65.0,-100.00,WNW,292,1.0,-999.0,84,-99.99,,,-99.99,1.160000,,2013-05-30 03:43:00,
2013-05-29 23:53:00,70.0,65.0,-100.00,WNW,292,1.0,-999.0,84,-99.99,,,-99.99,1.160000,,2013-05-30 03:53:00,